sensor_id;sensor_type;location;lat;lon;timestamp;P1;durP1;ratioP1;P2;durP2;ratioP2
57023;SDS011;42916;54.346;18.562;2023-02-04T00:01:47;3.90;;;1.40;;
57023;SDS011;42916;54.346;18.562;2023-02-04T00:04:13;3.00;;;1.00;;
57023;SDS011;42916;54.346;18.562;2023-02-04T00:06:41;2.40;;;1.40;;
57023;SDS011;42916;54.346;18.562;2023-02-04T00:09:08;2.10;;;0.90;;
57023;SDS011;42916;54.346;18.562;2023-02-04T00:11:34;1.40;;;0.90;;
57023;SDS011;42916;54.346;18.562;2023-02-04T00:14:01;1.90;;;1.10;;
57023;SDS011;42916;54.346;18.562;2023-02-04T00:16:28;2.10;;;1.00;;
57023;SDS011;42916;54.346;18.562;2023-02-04T00:18:55;4.50;;;0.90;;
57023;SDS011;42916;54.346;18.562;2023-02-04T00:21:21;3.00;;;1.00;;
57023;SDS011;42916;54.346;18.562;2023-02-04T00:23:48;2.20;;;0.90;;
57023;SDS011;42916;54.346;18.562;2023-02-04T00:26:16;1.50;;;0.70;;
57023;SDS011;42916;54.346;18.562;2023-02-04T00:28:43;1.10;;;0.80;;
57023;SDS011;42916;54.346;18.562;2023-02-04T00:31:10;1.80;;;1.00;;
57023;SDS011;42916;54.346;18.562;2023-02-04T00:33:37;1.50;;;0.80;;
57023;SDS011;42916;54.346;18.562;2023-02-04T00:36:03;2.70;;;1.20;;
57023;SDS011;42916;54.346;18.562;2023-02-04T00:38:30;1.10;;;0.80;;
57023;SDS011;42916;54.346;18.562;2023-02-04T00:40:57;3.20;;;0.80;;
57023;SDS011;42916;54.346;18.562;2023-02-04T00:43:24;2.50;;;0.90;;
57023;SDS011;42916;54.346;18.562;2023-02-04T00:45:51;2.30;;;1.10;;
57023;SDS011;42916;54.346;18.562;2023-02-04T00:48:17;0.90;;;0.70;;
57023;SDS011;42916;54.346;18.562;2023-02-04T00:50:44;2.00;;;0.90;;
57023;SDS011;42916;54.346;18.562;2023-02-04T00:53:12;3.00;;;0.90;;
57023;SDS011;42916;54.346;18.562;2023-02-04T00:55:38;2.50;;;1.10;;
57023;SDS011;42916;54.346;18.562;2023-02-04T00:58:05;2.30;;;0.90;;
57023;SDS011;42916;54.346;18.562;2023-02-04T01:00:32;3.10;;;0.70;;
57023;SDS011;42916;54.346;18.562;2023-02-04T01:02:58;2.70;;;1.00;;
57023;SDS011;42916;54.346;18.562;2023-02-04T01:05:25;1.60;;;0.60;;
57023;SDS011;42916;54.346;18.562;2023-02-04T01:07:52;3.00;;;0.90;;
57023;SDS011;42916;54.346;18.562;2023-02-04T01:10:19;0.70;;;0.50;;
57023;SDS011;42916;54.346;18.562;2023-02-04T01:12:46;0.50;;;0.50;;
57023;SDS011;42916;54.346;18.562;2023-02-04T01:15:13;1.50;;;0.70;;
57023;SDS011;42916;54.346;18.562;2023-02-04T01:17:40;1.40;;;0.50;;
57023;SDS011;42916;54.346;18.562;2023-02-04T01:20:07;1.70;;;0.60;;
57023;SDS011;42916;54.346;18.562;2023-02-04T01:22:35;1.60;;;0.40;;
57023;SDS011;42916;54.346;18.562;2023-02-04T01:25:02;0.70;;;0.40;;
57023;SDS011;42916;54.346;18.562;2023-02-04T01:27:42;1.70;;;0.70;;
57023;SDS011;42916;54.346;18.562;2023-02-04T01:30:11;0.90;;;0.40;;
57023;SDS011;42916;54.346;18.562;2023-02-04T01:32:40;0.80;;;0.40;;
57023;SDS011;42916;54.346;18.562;2023-02-04T01:35:07;0.40;;;0.30;;
57023;SDS011;42916;54.346;18.562;2023-02-04T01:37:34;1.40;;;0.40;;
57023;SDS011;42916;54.346;18.562;2023-02-04T01:40:01;2.00;;;0.40;;
57023;SDS011;42916;54.346;18.562;2023-02-04T01:42:29;2.40;;;0.50;;
57023;SDS011;42916;54.346;18.562;2023-02-04T01:44:56;0.50;;;0.30;;
57023;SDS011;42916;54.346;18.562;2023-02-04T01:47:22;0.90;;;0.50;;
57023;SDS011;42916;54.346;18.562;2023-02-04T01:49:51;1.50;;;0.70;;
57023;SDS011;42916;54.346;18.562;2023-02-04T01:52:20;3.10;;;0.50;;
57023;SDS011;42916;54.346;18.562;2023-02-04T01:54:48;1.80;;;0.50;;
57023;SDS011;42916;54.346;18.562;2023-02-04T01:57:16;2.20;;;0.60;;
57023;SDS011;42916;54.346;18.562;2023-02-04T01:59:44;1.50;;;0.40;;
57023;SDS011;42916;54.346;18.562;2023-02-04T02:05:10;0.70;;;0.60;;
57023;SDS011;42916;54.346;18.562;2023-02-04T02:07:41;0.80;;;0.50;;
57023;SDS011;42916;54.346;18.562;2023-02-04T02:10:08;3.00;;;0.70;;
57023;SDS011;42916;54.346;18.562;2023-02-04T02:12:37;0.80;;;0.30;;
57023;SDS011;42916;54.346;18.562;2023-02-04T02:15:04;4.00;;;0.70;;
57023;SDS011;42916;54.346;18.562;2023-02-04T02:17:31;2.20;;;0.50;;
57023;SDS011;42916;54.346;18.562;2023-02-04T02:19:59;1.80;;;0.60;;
57023;SDS011;42916;54.346;18.562;2023-02-04T02:22:28;0.80;;;0.50;;
57023;SDS011;42916;54.346;18.562;2023-02-04T02:25:12;1.80;;;0.50;;
57023;SDS011;42916;54.346;18.562;2023-02-04T02:30:09;1.60;;;0.70;;
57023;SDS011;42916;54.346;18.562;2023-02-04T02:32:38;1.10;;;0.40;;
57023;SDS011;42916;54.346;18.562;2023-02-04T02:35:06;2.30;;;0.50;;
57023;SDS011;42916;54.346;18.562;2023-02-04T02:37:33;1.80;;;0.60;;
57023;SDS011;42916;54.346;18.562;2023-02-04T02:40:00;1.00;;;0.60;;
57023;SDS011;42916;54.346;18.562;2023-02-04T02:42:28;0.80;;;0.50;;
57023;SDS011;42916;54.346;18.562;2023-02-04T02:44:55;1.20;;;0.50;;
57023;SDS011;42916;54.346;18.562;2023-02-04T02:47:23;1.10;;;0.40;;
57023;SDS011;42916;54.346;18.562;2023-02-04T02:49:51;1.50;;;0.50;;
57023;SDS011;42916;54.346;18.562;2023-02-04T02:52:19;1.00;;;0.50;;
57023;SDS011;42916;54.346;18.562;2023-02-04T02:54:46;1.70;;;0.60;;
57023;SDS011;42916;54.346;18.562;2023-02-04T02:59:42;3.50;;;0.70;;
57023;SDS011;42916;54.346;18.562;2023-02-04T03:02:10;1.60;;;0.60;;
57023;SDS011;42916;54.346;18.562;2023-02-04T03:04:41;0.70;;;0.50;;
57023;SDS011;42916;54.346;18.562;2023-02-04T03:07:14;1.40;;;0.60;;
57023;SDS011;42916;54.346;18.562;2023-02-04T03:09:43;2.70;;;0.70;;
57023;SDS011;42916;54.346;18.562;2023-02-04T03:12:10;1.80;;;0.40;;
57023;SDS011;42916;54.346;18.562;2023-02-04T03:14:37;1.10;;;0.60;;
57023;SDS011;42916;54.346;18.562;2023-02-04T03:17:05;0.40;;;0.40;;
57023;SDS011;42916;54.346;18.562;2023-02-04T03:19:34;1.20;;;0.50;;
57023;SDS011;42916;54.346;18.562;2023-02-04T03:22:03;1.20;;;0.40;;
57023;SDS011;42916;54.346;18.562;2023-02-04T03:24:31;2.20;;;0.60;;
57023;SDS011;42916;54.346;18.562;2023-02-04T03:26:58;0.90;;;0.30;;
57023;SDS011;42916;54.346;18.562;2023-02-04T03:29:26;1.50;;;0.30;;
57023;SDS011;42916;54.346;18.562;2023-02-04T03:31:52;0.60;;;0.50;;
57023;SDS011;42916;54.346;18.562;2023-02-04T03:34:21;1.20;;;0.50;;
57023;SDS011;42916;54.346;18.562;2023-02-04T03:36:48;0.50;;;0.50;;
57023;SDS011;42916;54.346;18.562;2023-02-04T03:39:15;2.70;;;0.80;;
57023;SDS011;42916;54.346;18.562;2023-02-04T03:41:42;1.90;;;0.80;;
57023;SDS011;42916;54.346;18.562;2023-02-04T03:44:08;3.70;;;1.20;;
57023;SDS011;42916;54.346;18.562;2023-02-04T03:46:35;2.50;;;0.70;;
57023;SDS011;42916;54.346;18.562;2023-02-04T03:49:02;1.20;;;0.50;;
57023;SDS011;42916;54.346;18.562;2023-02-04T03:51:29;2.60;;;0.70;;
57023;SDS011;42916;54.346;18.562;2023-02-04T03:53:55;0.90;;;0.40;;
57023;SDS011;42916;54.346;18.562;2023-02-04T03:56:22;0.40;;;0.40;;
57023;SDS011;42916;54.346;18.562;2023-02-04T03:58:49;1.70;;;0.70;;
57023;SDS011;42916;54.346;18.562;2023-02-04T04:01:15;1.40;;;0.70;;
57023;SDS011;42916;54.346;18.562;2023-02-04T04:03:42;1.00;;;0.70;;
57023;SDS011;42916;54.346;18.562;2023-02-04T04:06:09;1.40;;;0.70;;
57023;SDS011;42916;54.346;18.562;2023-02-04T04:08:37;7.60;;;1.50;;
57023;SDS011;42916;54.346;18.562;2023-02-04T04:11:04;9.60;;;1.50;;
57023;SDS011;42916;54.346;18.562;2023-02-04T04:13:31;1.70;;;1.00;;
57023;SDS011;42916;54.346;18.562;2023-02-04T04:15:58;1.90;;;0.80;;
57023;SDS011;42916;54.346;18.562;2023-02-04T04:18:24;2.60;;;0.90;;
57023;SDS011;42916;54.346;18.562;2023-02-04T04:20:51;4.50;;;0.70;;
57023;SDS011;42916;54.346;18.562;2023-02-04T04:23:18;1.70;;;0.60;;
57023;SDS011;42916;54.346;18.562;2023-02-04T04:25:44;3.00;;;0.70;;
57023;SDS011;42916;54.346;18.562;2023-02-04T04:28:11;1.00;;;0.60;;
57023;SDS011;42916;54.346;18.562;2023-02-04T04:30:38;1.10;;;0.60;;
57023;SDS011;42916;54.346;18.562;2023-02-04T04:33:05;2.80;;;0.70;;
57023;SDS011;42916;54.346;18.562;2023-02-04T04:35:32;3.10;;;0.80;;
57023;SDS011;42916;54.346;18.562;2023-02-04T04:38:00;3.60;;;0.80;;
57023;SDS011;42916;54.346;18.562;2023-02-04T04:40:28;1.20;;;0.60;;
57023;SDS011;42916;54.346;18.562;2023-02-04T04:42:54;5.70;;;1.00;;
57023;SDS011;42916;54.346;18.562;2023-02-04T04:45:21;1.90;;;0.80;;
57023;SDS011;42916;54.346;18.562;2023-02-04T04:47:48;1.10;;;1.00;;
57023;SDS011;42916;54.346;18.562;2023-02-04T04:50:15;1.90;;;0.80;;
57023;SDS011;42916;54.346;18.562;2023-02-04T04:52:42;4.40;;;0.80;;
57023;SDS011;42916;54.346;18.562;2023-02-04T04:55:08;1.70;;;0.90;;
57023;SDS011;42916;54.346;18.562;2023-02-04T04:57:35;1.70;;;0.70;;
57023;SDS011;42916;54.346;18.562;2023-02-04T05:00:03;1.50;;;0.80;;
57023;SDS011;42916;54.346;18.562;2023-02-04T05:02:31;2.60;;;0.50;;
57023;SDS011;42916;54.346;18.562;2023-02-04T05:04:58;1.40;;;0.80;;
57023;SDS011;42916;54.346;18.562;2023-02-04T05:07:25;2.60;;;0.70;;
57023;SDS011;42916;54.346;18.562;2023-02-04T05:09:53;2.30;;;0.70;;
57023;SDS011;42916;54.346;18.562;2023-02-04T05:12:19;1.80;;;0.70;;
57023;SDS011;42916;54.346;18.562;2023-02-04T05:14:46;2.00;;;0.80;;
57023;SDS011;42916;54.346;18.562;2023-02-04T05:17:13;1.80;;;0.80;;
57023;SDS011;42916;54.346;18.562;2023-02-04T05:19:40;1.50;;;0.60;;
57023;SDS011;42916;54.346;18.562;2023-02-04T05:22:06;3.40;;;1.40;;
57023;SDS011;42916;54.346;18.562;2023-02-04T05:24:33;1.10;;;0.70;;
57023;SDS011;42916;54.346;18.562;2023-02-04T05:27:00;3.60;;;0.70;;
57023;SDS011;42916;54.346;18.562;2023-02-04T05:29:26;0.80;;;0.60;;
57023;SDS011;42916;54.346;18.562;2023-02-04T05:31:53;2.50;;;0.70;;
57023;SDS011;42916;54.346;18.562;2023-02-04T05:34:20;2.40;;;0.80;;
57023;SDS011;42916;54.346;18.562;2023-02-04T05:36:47;2.60;;;0.60;;
57023;SDS011;42916;54.346;18.562;2023-02-04T05:39:13;1.70;;;0.90;;
57023;SDS011;42916;54.346;18.562;2023-02-04T05:41:40;1.20;;;0.70;;
57023;SDS011;42916;54.346;18.562;2023-02-04T05:44:07;1.90;;;0.70;;
57023;SDS011;42916;54.346;18.562;2023-02-04T05:46:34;3.00;;;0.80;;
57023;SDS011;42916;54.346;18.562;2023-02-04T05:49:01;2.70;;;1.10;;
57023;SDS011;42916;54.346;18.562;2023-02-04T05:51:28;1.30;;;0.70;;
57023;SDS011;42916;54.346;18.562;2023-02-04T05:53:55;3.50;;;0.80;;
57023;SDS011;42916;54.346;18.562;2023-02-04T05:56:22;1.50;;;0.70;;
57023;SDS011;42916;54.346;18.562;2023-02-04T05:58:50;1.90;;;0.90;;
57023;SDS011;42916;54.346;18.562;2023-02-04T06:01:17;1.40;;;0.90;;
57023;SDS011;42916;54.346;18.562;2023-02-04T06:03:44;5.20;;;1.00;;
57023;SDS011;42916;54.346;18.562;2023-02-04T06:06:10;1.80;;;1.10;;
57023;SDS011;42916;54.346;18.562;2023-02-04T06:08:37;2.70;;;1.00;;
57023;SDS011;42916;54.346;18.562;2023-02-04T06:11:04;2.30;;;1.40;;
57023;SDS011;42916;54.346;18.562;2023-02-04T06:13:31;1.60;;;0.90;;
57023;SDS011;42916;54.346;18.562;2023-02-04T06:15:57;1.50;;;0.90;;
57023;SDS011;42916;54.346;18.562;2023-02-04T06:18:24;1.90;;;1.40;;
57023;SDS011;42916;54.346;18.562;2023-02-04T06:20:51;1.90;;;1.20;;
57023;SDS011;42916;54.346;18.562;2023-02-04T06:23:18;2.10;;;1.00;;
57023;SDS011;42916;54.346;18.562;2023-02-04T06:25:44;2.50;;;1.20;;
57023;SDS011;42916;54.346;18.562;2023-02-04T06:28:14;1.80;;;1.00;;
57023;SDS011;42916;54.346;18.562;2023-02-04T06:30:41;1.10;;;0.90;;
57023;SDS011;42916;54.346;18.562;2023-02-04T06:33:09;2.70;;;0.80;;
57023;SDS011;42916;54.346;18.562;2023-02-04T06:35:36;1.30;;;0.90;;
57023;SDS011;42916;54.346;18.562;2023-02-04T06:38:03;4.60;;;1.40;;
57023;SDS011;42916;54.346;18.562;2023-02-04T06:40:29;3.20;;;1.00;;
57023;SDS011;42916;54.346;18.562;2023-02-04T06:42:56;1.80;;;0.60;;
57023;SDS011;42916;54.346;18.562;2023-02-04T06:45:23;1.50;;;1.10;;
57023;SDS011;42916;54.346;18.562;2023-02-04T06:47:49;1.40;;;0.80;;
57023;SDS011;42916;54.346;18.562;2023-02-04T06:50:16;1.50;;;1.10;;
57023;SDS011;42916;54.346;18.562;2023-02-04T06:52:44;2.70;;;1.30;;
57023;SDS011;42916;54.346;18.562;2023-02-04T06:55:12;2.40;;;1.10;;
57023;SDS011;42916;54.346;18.562;2023-02-04T06:57:40;3.60;;;1.40;;
57023;SDS011;42916;54.346;18.562;2023-02-04T07:00:07;3.30;;;1.20;;
57023;SDS011;42916;54.346;18.562;2023-02-04T07:02:35;1.80;;;1.10;;
57023;SDS011;42916;54.346;18.562;2023-02-04T07:05:04;2.10;;;1.10;;
57023;SDS011;42916;54.346;18.562;2023-02-04T07:07:31;3.10;;;0.90;;
57023;SDS011;42916;54.346;18.562;2023-02-04T07:09:58;1.90;;;1.00;;
57023;SDS011;42916;54.346;18.562;2023-02-04T07:12:26;4.80;;;1.50;;
57023;SDS011;42916;54.346;18.562;2023-02-04T07:14:53;2.10;;;1.00;;
57023;SDS011;42916;54.346;18.562;2023-02-04T07:17:19;2.70;;;1.00;;
57023;SDS011;42916;54.346;18.562;2023-02-04T07:19:46;1.10;;;0.90;;
57023;SDS011;42916;54.346;18.562;2023-02-04T07:22:13;1.20;;;0.80;;
57023;SDS011;42916;54.346;18.562;2023-02-04T07:24:40;2.70;;;1.00;;
57023;SDS011;42916;54.346;18.562;2023-02-04T07:27:06;2.30;;;0.90;;
57023;SDS011;42916;54.346;18.562;2023-02-04T07:29:33;4.90;;;1.10;;
57023;SDS011;42916;54.346;18.562;2023-02-04T07:32:00;1.30;;;0.80;;
57023;SDS011;42916;54.346;18.562;2023-02-04T07:34:27;1.20;;;0.90;;
57023;SDS011;42916;54.346;18.562;2023-02-04T07:36:53;2.40;;;1.30;;
57023;SDS011;42916;54.346;18.562;2023-02-04T07:39:20;1.60;;;1.10;;
57023;SDS011;42916;54.346;18.562;2023-02-04T07:41:47;6.50;;;1.30;;
57023;SDS011;42916;54.346;18.562;2023-02-04T07:44:14;1.00;;;0.90;;
57023;SDS011;42916;54.346;18.562;2023-02-04T07:46:40;2.30;;;0.80;;
57023;SDS011;42916;54.346;18.562;2023-02-04T07:49:07;2.70;;;1.10;;
57023;SDS011;42916;54.346;18.562;2023-02-04T07:51:34;1.90;;;0.80;;
57023;SDS011;42916;54.346;18.562;2023-02-04T07:54:01;2.10;;;1.10;;
57023;SDS011;42916;54.346;18.562;2023-02-04T07:56:27;3.10;;;1.00;;
57023;SDS011;42916;54.346;18.562;2023-02-04T07:58:54;3.00;;;1.00;;
57023;SDS011;42916;54.346;18.562;2023-02-04T08:01:21;3.80;;;1.00;;
57023;SDS011;42916;54.346;18.562;2023-02-04T08:03:48;1.90;;;1.20;;
57023;SDS011;42916;54.346;18.562;2023-02-04T08:06:15;4.60;;;1.30;;
57023;SDS011;42916;54.346;18.562;2023-02-04T08:08:41;1.90;;;1.40;;
57023;SDS011;42916;54.346;18.562;2023-02-04T08:11:08;3.10;;;1.70;;
57023;SDS011;42916;54.346;18.562;2023-02-04T08:13:35;2.50;;;2.00;;
57023;SDS011;42916;54.346;18.562;2023-02-04T08:16:02;2.60;;;1.50;;
57023;SDS011;42916;54.346;18.562;2023-02-04T08:18:29;3.90;;;1.70;;
57023;SDS011;42916;54.346;18.562;2023-02-04T08:20:55;2.50;;;1.40;;
57023;SDS011;42916;54.346;18.562;2023-02-04T08:23:22;4.20;;;1.80;;
57023;SDS011;42916;54.346;18.562;2023-02-04T08:25:49;3.50;;;1.50;;
57023;SDS011;42916;54.346;18.562;2023-02-04T08:28:16;3.30;;;1.70;;
57023;SDS011;42916;54.346;18.562;2023-02-04T08:30:43;4.10;;;1.70;;
57023;SDS011;42916;54.346;18.562;2023-02-04T08:33:10;2.70;;;1.50;;
57023;SDS011;42916;54.346;18.562;2023-02-04T08:35:37;3.70;;;1.30;;
57023;SDS011;42916;54.346;18.562;2023-02-04T08:38:03;2.10;;;1.20;;
57023;SDS011;42916;54.346;18.562;2023-02-04T08:40:30;3.10;;;1.80;;
57023;SDS011;42916;54.346;18.562;2023-02-04T08:42:57;2.90;;;1.80;;
57023;SDS011;42916;54.346;18.562;2023-02-04T08:45:24;4.20;;;1.00;;
57023;SDS011;42916;54.346;18.562;2023-02-04T08:47:50;2.90;;;1.40;;
57023;SDS011;42916;54.346;18.562;2023-02-04T08:50:17;1.80;;;1.40;;
57023;SDS011;42916;54.346;18.562;2023-02-04T08:52:44;1.50;;;1.30;;
57023;SDS011;42916;54.346;18.562;2023-02-04T08:55:11;3.30;;;1.40;;
57023;SDS011;42916;54.346;18.562;2023-02-04T08:57:38;1.90;;;1.10;;
57023;SDS011;42916;54.346;18.562;2023-02-04T09:00:04;1.50;;;1.30;;
57023;SDS011;42916;54.346;18.562;2023-02-04T09:02:31;3.80;;;1.70;;
57023;SDS011;42916;54.346;18.562;2023-02-04T09:04:58;3.30;;;1.00;;
57023;SDS011;42916;54.346;18.562;2023-02-04T09:07:25;2.30;;;1.60;;
57023;SDS011;42916;54.346;18.562;2023-02-04T09:09:52;2.30;;;1.30;;
57023;SDS011;42916;54.346;18.562;2023-02-04T09:12:18;1.30;;;1.00;;
57023;SDS011;42916;54.346;18.562;2023-02-04T09:14:45;2.90;;;1.30;;
57023;SDS011;42916;54.346;18.562;2023-02-04T09:17:12;2.70;;;1.40;;
57023;SDS011;42916;54.346;18.562;2023-02-04T09:19:38;1.40;;;1.00;;
57023;SDS011;42916;54.346;18.562;2023-02-04T09:22:05;3.50;;;1.20;;
57023;SDS011;42916;54.346;18.562;2023-02-04T09:24:32;2.00;;;0.90;;
57023;SDS011;42916;54.346;18.562;2023-02-04T09:26:59;4.10;;;1.50;;
57023;SDS011;42916;54.346;18.562;2023-02-04T09:29:25;2.20;;;1.20;;
57023;SDS011;42916;54.346;18.562;2023-02-04T09:31:52;2.30;;;1.40;;
57023;SDS011;42916;54.346;18.562;2023-02-04T09:34:19;3.30;;;1.30;;
57023;SDS011;42916;54.346;18.562;2023-02-04T09:36:46;3.20;;;1.10;;
57023;SDS011;42916;54.346;18.562;2023-02-04T09:39:12;2.60;;;1.30;;
57023;SDS011;42916;54.346;18.562;2023-02-04T09:41:39;2.20;;;1.20;;
57023;SDS011;42916;54.346;18.562;2023-02-04T09:44:09;3.00;;;1.40;;
57023;SDS011;42916;54.346;18.562;2023-02-04T09:46:41;1.30;;;1.00;;
57023;SDS011;42916;54.346;18.562;2023-02-04T09:49:20;1.70;;;1.20;;
57023;SDS011;42916;54.346;18.562;2023-02-04T09:51:47;1.80;;;1.00;;
57023;SDS011;42916;54.346;18.562;2023-02-04T09:54:18;2.50;;;1.10;;
57023;SDS011;42916;54.346;18.562;2023-02-04T09:56:46;2.80;;;1.20;;
57023;SDS011;42916;54.346;18.562;2023-02-04T09:59:15;1.50;;;1.00;;
57023;SDS011;42916;54.346;18.562;2023-02-04T10:01:43;4.40;;;1.20;;
57023;SDS011;42916;54.346;18.562;2023-02-04T10:04:13;2.90;;;1.70;;
57023;SDS011;42916;54.346;18.562;2023-02-04T10:06:41;3.10;;;1.10;;
57023;SDS011;42916;54.346;18.562;2023-02-04T10:09:10;2.70;;;1.50;;
57023;SDS011;42916;54.346;18.562;2023-02-04T10:11:38;4.60;;;1.20;;
57023;SDS011;42916;54.346;18.562;2023-02-04T10:14:14;4.20;;;1.20;;
57023;SDS011;42916;54.346;18.562;2023-02-04T10:16:45;2.00;;;0.80;;
57023;SDS011;42916;54.346;18.562;2023-02-04T10:19:19;2.00;;;1.00;;
57023;SDS011;42916;54.346;18.562;2023-02-04T10:21:46;3.70;;;0.70;;
57023;SDS011;42916;54.346;18.562;2023-02-04T10:24:14;2.30;;;1.00;;
57023;SDS011;42916;54.346;18.562;2023-02-04T10:26:43;3.90;;;1.30;;
57023;SDS011;42916;54.346;18.562;2023-02-04T10:29:12;2.90;;;1.10;;
57023;SDS011;42916;54.346;18.562;2023-02-04T10:31:47;1.80;;;1.10;;
57023;SDS011;42916;54.346;18.562;2023-02-04T10:34:19;1.70;;;1.00;;
57023;SDS011;42916;54.346;18.562;2023-02-04T10:36:49;2.60;;;1.20;;
57023;SDS011;42916;54.346;18.562;2023-02-04T10:39:19;1.80;;;0.90;;
57023;SDS011;42916;54.346;18.562;2023-02-04T10:41:54;3.00;;;1.50;;
57023;SDS011;42916;54.346;18.562;2023-02-04T10:44:30;3.90;;;1.30;;
57023;SDS011;42916;54.346;18.562;2023-02-04T10:47:02;1.50;;;1.10;;
57023;SDS011;42916;54.346;18.562;2023-02-04T10:49:31;2.70;;;1.40;;
57023;SDS011;42916;54.346;18.562;2023-02-04T10:51:59;3.90;;;1.40;;
57023;SDS011;42916;54.346;18.562;2023-02-04T10:54:32;2.60;;;1.20;;
57023;SDS011;42916;54.346;18.562;2023-02-04T10:57:07;2.50;;;1.30;;
57023;SDS011;42916;54.346;18.562;2023-02-04T10:59:45;4.60;;;1.50;;
57023;SDS011;42916;54.346;18.562;2023-02-04T11:05:12;2.20;;;1.30;;
57023;SDS011;42916;54.346;18.562;2023-02-04T11:07:41;2.80;;;1.20;;
57023;SDS011;42916;54.346;18.562;2023-02-04T11:10:11;4.70;;;1.90;;
57023;SDS011;42916;54.346;18.562;2023-02-04T11:12:41;2.90;;;1.50;;
57023;SDS011;42916;54.346;18.562;2023-02-04T11:15:40;5.30;;;1.60;;
57023;SDS011;42916;54.346;18.562;2023-02-04T11:18:09;5.30;;;1.50;;
57023;SDS011;42916;54.346;18.562;2023-02-04T11:20:46;3.20;;;1.10;;
57023;SDS011;42916;54.346;18.562;2023-02-04T11:36:14;3.30;;;1.40;;
57023;SDS011;42916;54.346;18.562;2023-02-04T11:38:46;3.70;;;1.30;;
57023;SDS011;42916;54.346;18.562;2023-02-04T11:41:33;3.30;;;1.30;;
57023;SDS011;42916;54.346;18.562;2023-02-04T11:44:00;2.20;;;1.20;;
57023;SDS011;42916;54.346;18.562;2023-02-04T11:46:27;4.10;;;1.60;;
57023;SDS011;42916;54.346;18.562;2023-02-04T11:48:55;3.50;;;1.40;;
57023;SDS011;42916;54.346;18.562;2023-02-04T11:51:32;3.60;;;1.50;;
57023;SDS011;42916;54.346;18.562;2023-02-04T11:54:00;3.40;;;1.50;;
57023;SDS011;42916;54.346;18.562;2023-02-04T11:56:27;4.60;;;2.10;;
57023;SDS011;42916;54.346;18.562;2023-02-04T11:58:55;4.20;;;1.80;;
57023;SDS011;42916;54.346;18.562;2023-02-04T12:01:24;1.60;;;1.20;;
57023;SDS011;42916;54.346;18.562;2023-02-04T12:03:57;2.80;;;1.50;;
57023;SDS011;42916;54.346;18.562;2023-02-04T12:06:33;4.10;;;1.20;;
57023;SDS011;42916;54.346;18.562;2023-02-04T12:11:50;5.50;;;1.40;;
57023;SDS011;42916;54.346;18.562;2023-02-04T12:14:19;2.10;;;1.00;;
57023;SDS011;42916;54.346;18.562;2023-02-04T12:16:46;4.50;;;1.20;;
57023;SDS011;42916;54.346;18.562;2023-02-04T12:19:16;2.30;;;1.20;;
57023;SDS011;42916;54.346;18.562;2023-02-04T12:21:43;1.40;;;0.90;;
57023;SDS011;42916;54.346;18.562;2023-02-04T12:24:10;2.80;;;1.20;;
57023;SDS011;42916;54.346;18.562;2023-02-04T12:26:37;2.40;;;1.20;;
57023;SDS011;42916;54.346;18.562;2023-02-04T12:29:04;1.40;;;1.00;;
57023;SDS011;42916;54.346;18.562;2023-02-04T12:31:31;3.40;;;1.10;;
57023;SDS011;42916;54.346;18.562;2023-02-04T12:33:59;3.60;;;1.20;;
57023;SDS011;42916;54.346;18.562;2023-02-04T12:36:26;2.40;;;1.30;;
57023;SDS011;42916;54.346;18.562;2023-02-04T12:38:58;2.70;;;1.20;;
57023;SDS011;42916;54.346;18.562;2023-02-04T12:41:25;2.40;;;1.40;;
57023;SDS011;42916;54.346;18.562;2023-02-04T12:43:53;3.40;;;1.40;;
57023;SDS011;42916;54.346;18.562;2023-02-04T12:46:21;3.10;;;1.20;;
57023;SDS011;42916;54.346;18.562;2023-02-04T12:48:47;2.20;;;1.40;;
57023;SDS011;42916;54.346;18.562;2023-02-04T12:51:14;2.70;;;1.50;;
57023;SDS011;42916;54.346;18.562;2023-02-04T12:53:41;2.90;;;1.40;;
57023;SDS011;42916;54.346;18.562;2023-02-04T12:56:08;5.00;;;1.60;;
57023;SDS011;42916;54.346;18.562;2023-02-04T12:58:34;3.70;;;1.20;;
57023;SDS011;42916;54.346;18.562;2023-02-04T13:01:01;1.00;;;0.80;;
57023;SDS011;42916;54.346;18.562;2023-02-04T13:03:28;1.50;;;1.10;;
57023;SDS011;42916;54.346;18.562;2023-02-04T13:05:55;3.60;;;1.20;;
57023;SDS011;42916;54.346;18.562;2023-02-04T13:08:22;4.20;;;1.40;;
57023;SDS011;42916;54.346;18.562;2023-02-04T13:10:49;2.50;;;1.30;;
57023;SDS011;42916;54.346;18.562;2023-02-04T13:13:17;2.70;;;1.50;;
57023;SDS011;42916;54.346;18.562;2023-02-04T13:15:45;4.50;;;1.80;;
57023;SDS011;42916;54.346;18.562;2023-02-04T13:18:13;4.20;;;1.70;;
57023;SDS011;42916;54.346;18.562;2023-02-04T13:20:40;3.90;;;1.60;;
57023;SDS011;42916;54.346;18.562;2023-02-04T13:23:07;2.40;;;1.00;;
57023;SDS011;42916;54.346;18.562;2023-02-04T13:25:34;2.20;;;1.50;;
57023;SDS011;42916;54.346;18.562;2023-02-04T13:28:01;4.20;;;1.50;;
57023;SDS011;42916;54.346;18.562;2023-02-04T13:30:27;2.80;;;1.80;;
57023;SDS011;42916;54.346;18.562;2023-02-04T13:32:54;3.60;;;2.00;;
57023;SDS011;42916;54.346;18.562;2023-02-04T13:35:21;4.00;;;2.00;;
57023;SDS011;42916;54.346;18.562;2023-02-04T13:37:48;3.80;;;1.70;;
57023;SDS011;42916;54.346;18.562;2023-02-04T13:40:15;1.70;;;1.20;;
57023;SDS011;42916;54.346;18.562;2023-02-04T13:42:42;2.90;;;1.80;;
57023;SDS011;42916;54.346;18.562;2023-02-04T13:45:09;2.70;;;1.50;;
57023;SDS011;42916;54.346;18.562;2023-02-04T13:47:38;2.20;;;1.00;;
57023;SDS011;42916;54.346;18.562;2023-02-04T13:50:05;2.00;;;1.30;;
57023;SDS011;42916;54.346;18.562;2023-02-04T13:52:32;1.70;;;0.90;;
57023;SDS011;42916;54.346;18.562;2023-02-04T13:54:59;2.80;;;1.40;;
57023;SDS011;42916;54.346;18.562;2023-02-04T13:57:26;2.00;;;1.20;;
57023;SDS011;42916;54.346;18.562;2023-02-04T13:59:53;3.00;;;1.40;;
57023;SDS011;42916;54.346;18.562;2023-02-04T14:02:20;2.70;;;1.60;;
57023;SDS011;42916;54.346;18.562;2023-02-04T14:04:49;3.00;;;1.60;;
57023;SDS011;42916;54.346;18.562;2023-02-04T14:07:16;2.60;;;1.30;;
57023;SDS011;42916;54.346;18.562;2023-02-04T14:09:43;3.10;;;1.40;;
57023;SDS011;42916;54.346;18.562;2023-02-04T14:12:10;2.60;;;1.50;;
57023;SDS011;42916;54.346;18.562;2023-02-04T14:14:36;3.00;;;1.40;;
57023;SDS011;42916;54.346;18.562;2023-02-04T14:17:03;2.90;;;1.30;;
57023;SDS011;42916;54.346;18.562;2023-02-04T14:19:30;4.50;;;1.50;;
57023;SDS011;42916;54.346;18.562;2023-02-04T14:21:56;3.90;;;2.00;;
57023;SDS011;42916;54.346;18.562;2023-02-04T14:24:24;5.40;;;2.30;;
57023;SDS011;42916;54.346;18.562;2023-02-04T14:26:50;3.50;;;1.60;;
57023;SDS011;42916;54.346;18.562;2023-02-04T14:29:17;2.90;;;1.70;;
57023;SDS011;42916;54.346;18.562;2023-02-04T14:31:44;4.90;;;1.70;;
57023;SDS011;42916;54.346;18.562;2023-02-04T14:34:11;3.30;;;1.30;;
57023;SDS011;42916;54.346;18.562;2023-02-04T14:36:38;3.10;;;1.30;;
57023;SDS011;42916;54.346;18.562;2023-02-04T14:39:05;3.20;;;1.50;;
57023;SDS011;42916;54.346;18.562;2023-02-04T14:41:32;2.70;;;1.40;;
57023;SDS011;42916;54.346;18.562;2023-02-04T14:43:59;2.20;;;1.40;;
57023;SDS011;42916;54.346;18.562;2023-02-04T14:46:25;2.50;;;1.40;;
57023;SDS011;42916;54.346;18.562;2023-02-04T14:48:52;3.50;;;1.50;;
57023;SDS011;42916;54.346;18.562;2023-02-04T14:51:19;3.00;;;1.70;;
57023;SDS011;42916;54.346;18.562;2023-02-04T14:53:46;3.00;;;1.80;;
57023;SDS011;42916;54.346;18.562;2023-02-04T14:56:13;4.80;;;2.00;;
57023;SDS011;42916;54.346;18.562;2023-02-04T14:58:40;4.40;;;1.90;;
57023;SDS011;42916;54.346;18.562;2023-02-04T15:01:07;5.60;;;2.00;;
57023;SDS011;42916;54.346;18.562;2023-02-04T15:03:34;4.50;;;2.40;;